Terminal Aerodrome Forecast
Issued by NWS Caribou, ME

Home | Current Version | Previous Version | Text Only | Print | Product List | Glossary On
Versions: 1 2 3 4 5 6 7 8 9 10 11 12 13 14 15 16 17 18 19 20
000
FTUS41 KCAR 261720
TAFBGR
TAF
KBGR 261720Z 2618/2718 01005KT P6SM BKN200
     FM262300 01008KT P6SM SCT060 BKN080
     FM270400 02010KT P6SM OVC050
     FM270500 02013G23KT 2SM -SN OVC015
     FM270800 03015G30KT 1/2SM SN FZFG OVC005
     FM271000 03025G42KT 1/4SM +SN VV002=

USA.gov is the U.S. government's official web portal to all federal, state and local government web resources and services.